Time;durP1;ratioP1;P1;durP2;ratioP2;P2;SDS_P1;SDS_P2;PMS_P1;PMS_P2;Temp;Humidity;BMP_temperature;BMP_pressure;BME280_temperature;BME280_humidity;BME280_pressure;Samples;Min_cycle;Max_cycle;Signal;HPM_P1;HPM_P2
2022/04/09 00:00:28;;;;;;;17.50;10.95;;;3.20;99.90;;;3.85;100.00;97281.63;5041626;27;120165;-67
2022/04/09 00:02:57;;;;;;;17.55;10.85;;;3.20;99.90;;;3.83;100.00;97290.00;5041569;27;120057;-67
2022/04/09 00:05:26;;;;;;;16.67;10.30;;;3.30;99.90;;;3.81;100.00;97291.44;5041312;27;129962;-69
2022/04/09 00:07:54;;;;;;;16.92;10.25;;;3.30;99.90;;;3.98;100.00;97293.28;5041498;27;129539;-68
2022/04/09 00:10:25;;;;;;;16.45;10.52;;;3.30;99.90;;;4.03;100.00;97293.09;5043454;27;119478;-68
2022/04/09 00:12:54;;;;;;;15.75;10.07;;;3.40;99.90;;;4.08;100.00;97290.22;5041656;27;119795;-67
2022/04/09 00:15:22;;;;;;;15.50;10.50;;;3.40;99.90;;;4.10;100.00;97288.03;5024853;27;129417;-68
2022/04/09 00:17:51;;;;;;;16.95;10.98;;;3.40;99.90;;;4.14;100.00;97291.63;5041148;27;130386;-67
2022/04/09 00:20:21;;;;;;;19.45;10.63;;;3.40;99.90;;;4.20;100.00;97298.38;5042023;27;119585;-72
2022/04/09 00:22:49;;;;;;;18.73;10.82;;;3.50;99.90;;;4.22;100.00;97290.00;5025459;27;118793;-68
2022/04/09 00:25:21;;;;;;;15.65;10.32;;;3.50;99.90;;;4.26;100.00;97291.72;5024948;27;129050;-70
2022/04/09 00:27:51;;;;;;;17.85;11.18;;;3.50;99.90;;;4.28;100.00;97294.84;5039813;27;129843;-70
2022/04/09 00:30:21;;;;;;;15.90;10.82;;;3.50;99.90;;;4.29;100.00;97291.06;5022014;27;119525;-70
2022/04/09 00:32:50;;;;;;;14.95;9.98;;;3.50;99.90;;;4.29;100.00;97296.44;5043294;27;119976;-70
2022/04/09 00:35:18;;;;;;;17.27;11.52;;;3.50;99.90;;;4.27;100.00;97298.66;5021284;27;129763;-69
2022/04/09 00:37:48;;;;;;;15.68;10.57;;;3.50;99.90;;;4.34;100.00;97292.00;5041543;27;129721;-70
2022/04/09 00:40:19;;;;;;;16.27;11.02;;;3.50;99.90;;;4.40;100.00;97294.19;5020253;27;122052;-68
2022/04/09 00:42:48;;;;;;;16.38;10.73;;;3.50;99.90;;;4.37;100.00;97299.41;5039797;27;122455;-67
2022/04/09 00:45:18;;;;;;;17.65;11.63;;;3.50;99.90;;;4.40;100.00;97293.41;5038284;27;129785;-71
2022/04/09 00:47:47;;;;;;;16.50;11.57;;;3.50;99.90;;;4.42;100.00;97299.22;5008032;27;129982;-69
2022/04/09 00:50:16;;;;;;;16.77;10.98;;;3.50;99.90;;;4.36;100.00;97292.47;5021652;27;119928;-70
2022/04/09 00:52:50;;;;;;;15.68;11.55;;;3.50;99.90;;;4.29;100.00;97285.69;5039955;27;119694;-71
2022/04/09 00:56:12;;;;;;;15.73;10.50;;;3.50;99.90;;;4.30;100.00;97281.09;5021168;27;130264;-70
2022/04/09 00:58:15;;;;;;;15.48;10.32;;;3.50;99.90;;;4.37;100.00;97272.56;5023692;27;130107;-69
2022/04/09 01:00:45;;;;;;;16.95;11.05;;;3.50;99.90;;;4.37;100.00;97264.50;5039577;27;119386;-69
2022/04/09 01:03:19;;;;;;;15.80;11.43;;;3.50;99.90;;;4.38;100.00;97261.50;5024833;27;118717;-66
2022/04/09 01:05:49;;;;;;;15.63;10.88;;;3.50;99.90;;;4.40;100.00;97261.16;5038008;27;130578;-69
2022/04/09 01:08:19;;;;;;;17.38;11.65;;;3.50;99.90;;;4.47;100.00;97264.09;5038134;27;129907;-69
2022/04/09 01:10:50;;;;;;;16.48;11.00;;;3.50;99.90;;;4.43;100.00;97269.34;5024533;27;120050;-71
2022/04/09 01:13:22;;;;;;;18.25;11.75;;;3.50;99.90;;;4.30;100.00;97265.81;5007672;27;119375;-67
2022/04/09 01:15:52;;;;;;;16.05;11.32;;;3.50;99.90;;;4.28;100.00;97257.25;5007282;27;128999;-70
2022/04/09 01:18:21;;;;;;;15.90;11.05;;;3.50;99.90;;;4.28;100.00;97262.63;5037334;27;129930;-70
2022/04/09 01:22:08;;;;;;;16.07;11.50;;;3.40;99.90;;;4.14;100.00;97270.13;5104159;27;102570;-70
2022/04/09 01:24:37;;;;;;;19.17;11.85;;;3.40;99.90;;;4.14;100.00;97272.81;5076297;27;116405;-69
2022/04/09 01:27:07;;;;;;;19.63;12.75;;;3.40;99.90;;;4.10;100.00;97267.31;5079071;27;129834;-70
2022/04/09 01:29:39;;;;;;;19.77;13.20;;;3.40;99.90;;;4.14;100.00;97278.19;5079280;27;128441;-70
2022/04/09 01:32:08;;;;;;;17.02;12.02;;;3.50;99.90;;;4.07;100.00;97267.97;5075792;27;118708;-68
2022/04/09 01:34:38;;;;;;;19.08;12.90;;;3.50;99.90;;;4.08;100.00;97268.75;5078948;27;115299;-68
2022/04/09 01:37:08;;;;;;;20.23;13.70;;;3.50;99.90;;;4.13;100.00;97276.63;5076057;27;130338;-68
2022/04/09 01:39:38;;;;;;;20.02;13.05;;;3.50;99.90;;;4.04;100.00;97278.56;5075398;27;129305;-69
2022/04/09 01:42:10;;;;;;;22.67;13.77;;;3.60;99.90;;;4.10;100.00;97271.91;5078964;27;117851;-69
2022/04/09 01:44:41;;;;;;;18.83;13.30;;;3.60;99.90;;;4.04;100.00;97262.47;5062252;27;114568;-71
2022/04/09 01:47:09;;;;;;;17.90;12.13;;;3.60;99.90;;;4.14;100.00;97262.09;5075354;27;130327;-71
2022/04/09 01:49:38;;;;;;;19.83;13.13;;;3.60;99.90;;;4.17;100.00;97266.03;5075498;27;129772;-70
2022/04/09 01:52:10;;;;;;;19.48;12.52;;;3.60;99.90;;;4.29;100.00;97274.97;5078670;27;118849;-71
2022/04/09 01:54:39;;;;;;;20.05;12.90;;;3.70;99.90;;;4.36;100.00;97279.03;5075686;27;116367;-70
2022/04/09 01:57:08;;;;;;;17.70;12.32;;;3.70;99.90;;;4.27;100.00;97282.56;5076595;27;130184;-70
2022/04/09 01:59:37;;;;;;;19.80;13.20;;;3.70;99.90;;;4.26;100.00;97297.09;5075029;27;130115;-69
2022/04/09 02:02:08;;;;;;;17.13;12.10;;;3.70;99.90;;;4.26;100.00;97286.34;5078777;27;118593;-69
2022/04/09 02:04:36;;;;;;;19.40;12.95;;;3.70;99.90;;;4.22;100.00;97293.47;5075545;27;115791;-71
2022/04/09 02:07:05;;;;;;;16.58;12.00;;;3.70;99.90;;;4.39;100.00;97307.94;5061093;27;129481;-69
2022/04/09 02:09:35;;;;;;;18.45;12.68;;;3.70;99.90;;;4.41;100.00;97313.75;5095549;27;129393;-70
2022/04/09 02:12:06;;;;;;;20.42;12.82;;;3.70;99.90;;;4.38;100.00;97315.22;5076996;27;119601;-71
2022/04/09 02:14:34;;;;;;;18.83;12.75;;;3.70;99.90;;;4.37;100.00;97319.00;5075344;27;115610;-70
2022/04/09 02:17:03;;;;;;;19.02;13.00;;;3.70;99.90;;;4.39;100.00;97318.66;5061314;27;129236;-71
2022/04/09 02:19:32;;;;;;;18.42;13.15;;;3.70;99.90;;;4.39;100.00;97321.34;5078100;27;129395;-72
2022/04/09 02:22:01;;;;;;;19.40;12.65;;;3.70;99.90;;;4.39;100.00;97321.34;5078188;27;119282;-69
2022/04/09 02:24:30;;;;;;;17.75;12.57;;;3.70;99.90;;;4.41;100.00;97319.94;5078772;27;115005;-71
2022/04/09 02:27:00;;;;;;;18.77;12.60;;;3.70;99.90;;;4.24;100.00;97336.91;5078149;27;128926;-71
2022/04/09 02:29:29;;;;;;;18.77;12.52;;;3.70;99.90;;;4.32;100.00;97336.06;5078140;27;128346;-69
2022/04/09 02:31:58;;;;;;;20.00;13.18;;;3.70;99.90;;;4.32;100.00;97325.34;5056289;27;118872;-70
2022/04/09 02:34:29;;;;;;;20.38;12.35;;;3.70;99.90;;;4.16;100.00;97315.44;5061485;27;115831;-69
2022/04/09 02:36:57;;;;;;;18.38;12.82;;;3.60;99.90;;;4.29;100.00;97312.56;5081237;27;129590;-71
2022/04/09 02:39:26;;;;;;;18.35;12.20;;;3.70;99.90;;;4.30;100.00;97307.97;5047192;27;128525;-70
2022/04/09 02:41:54;;;;;;;18.17;12.68;;;3.60;99.90;;;4.30;100.00;97292.66;5061345;27;118529;-70
2022/04/09 02:44:25;;;;;;;18.73;12.52;;;3.60;99.90;;;4.41;100.00;97297.63;5047727;27;114759;-70
2022/04/09 02:46:54;;;;;;;19.65;12.18;;;3.70;99.90;;;4.40;100.00;97286.13;5043922;27;130339;-69
2022/04/09 02:49:23;;;;;;;18.23;12.27;;;3.60;99.90;;;4.48;100.00;97279.13;5047068;27;128998;-70
2022/04/09 02:51:52;;;;;;;19.95;13.25;;;3.70;99.90;;;4.55;100.00;97281.28;5060992;27;119163;-68
2022/04/09 02:54:21;;;;;;;22.20;13.38;;;3.70;99.90;;;4.51;100.00;97281.16;5065108;27;116099;-69
2022/04/09 02:56:53;;;;;;;16.90;12.50;;;3.60;99.90;;;4.47;100.00;97267.59;5061076;27;129948;-69
2022/04/09 02:59:28;;;;;;;16.40;11.85;;;3.60;99.90;;;4.44;100.00;97275.50;5063676;27;128719;-68
2022/04/09 03:01:58;;;;;;;18.63;12.73;;;3.60;99.90;;;4.40;100.00;97274.59;5064174;27;118700;-69
2022/04/09 03:04:26;;;;;;;17.83;12.38;;;3.60;99.90;;;4.28;100.00;97286.03;5081468;27;115892;-70
2022/04/09 03:06:56;;;;;;;19.17;12.30;;;3.60;99.90;;;4.19;100.00;97294.13;5060569;27;129874;-69
2022/04/09 03:09:25;;;;;;;17.65;12.38;;;3.50;99.90;;;4.27;100.00;97293.31;5063744;27;130053;-69
2022/04/09 03:11:53;;;;;;;18.75;12.25;;;3.50;99.90;;;4.22;100.00;97295.38;5063975;27;118421;-69
2022/04/09 03:14:22;;;;;;;17.30;11.73;;;3.50;99.90;;;4.20;100.00;97287.63;5062120;27;116003;-68
2022/04/09 03:16:52;;;;;;;17.25;12.27;;;3.50;99.90;;;4.14;100.00;97291.63;5062000;27;129690;-69
2022/04/09 03:19:22;;;;;;;17.92;11.63;;;3.50;99.90;;;4.10;100.00;97288.81;5063513;27;129650;-68
2022/04/09 03:21:51;;;;;;;16.88;11.70;;;3.50;99.90;;;4.27;100.00;97297.88;5046799;27;117651;-69
2022/04/09 03:24:21;;;;;;;16.20;11.68;;;3.50;99.90;;;4.39;100.00;97294.50;5046808;27;115836;-69
2022/04/09 03:26:49;;;;;;;17.85;11.63;;;3.60;99.90;;;4.40;100.00;97296.09;5060368;27;129815;-69
2022/04/09 03:29:18;;;;;;;15.63;10.85;;;3.60;99.90;;;4.24;100.00;97293.94;5061782;27;129453;-68
2022/04/09 03:31:49;;;;;;;17.05;10.68;;;3.50;99.90;;;4.18;100.00;97283.72;5063906;27;117992;-70
2022/04/09 03:34:19;;;;;;;16.85;10.98;;;3.50;99.90;;;4.17;100.00;97304.41;5063975;27;115602;-68
2022/04/09 03:36:48;;;;;;;14.23;9.85;;;3.50;99.90;;;3.99;100.00;97303.69;5059975;27;129874;-67
2022/04/09 03:39:17;;;;;;;13.95;10.10;;;3.40;99.90;;;4.01;100.00;97316.78;5063963;27;130145;-69
2022/04/09 03:41:46;;;;;;;15.38;10.20;;;3.40;99.90;;;3.99;100.00;97313.63;5060245;27;118913;-68
2022/04/09 03:44:14;;;;;;;14.95;10.55;;;3.40;99.90;;;4.03;100.00;97319.94;5062599;27;114732;-70
2022/04/09 03:46:49;;;;;;;15.18;10.40;;;3.40;99.90;;;4.07;100.00;97304.78;5063126;27;128746;-69
2022/04/09 03:49:21;;;;;;;13.57;9.85;;;3.50;99.90;;;4.06;100.00;97297.81;5046239;27;129173;-70
2022/04/09 03:51:50;;;;;;;15.13;10.60;;;3.40;99.90;;;4.10;100.00;97310.28;5077806;27;119072;-70
2022/04/09 03:54:21;;;;;;;14.60;10.40;;;3.40;99.90;;;4.05;100.00;97312.34;5047289;27;115537;-69
2022/04/09 03:56:52;;;;;;;14.40;9.63;;;3.40;99.90;;;4.13;100.00;97314.22;5059977;27;130231;-70
2022/04/09 03:59:23;;;;;;;15.50;10.57;;;3.50;99.90;;;4.10;100.00;97328.28;5063184;27;129111;-69
2022/04/09 04:01:52;;;;;;;12.35;9.35;;;3.50;99.90;;;4.15;100.00;97322.72;5060461;27;119261;-68
2022/04/09 04:04:24;;;;;;;14.25;10.50;;;3.50;99.90;;;4.19;100.00;97323.66;5047240;27;112377;-68
2022/04/09 04:06:56;;;;;;;14.20;9.65;;;3.40;99.90;;;4.20;100.00;97309.13;5059321;27;130546;-68
2022/04/09 04:09:24;;;;;;;12.45;9.38;;;3.40;99.90;;;4.28;100.00;97316.34;5063385;27;128869;-68
2022/04/09 04:11:57;;;;;;;12.35;9.50;;;3.50;99.90;;;4.34;100.00;97318.88;5060233;27;119428;-69
2022/04/09 04:14:29;;;;;;;13.77;9.68;;;3.50;99.90;;;4.31;100.00;97315.69;5063835;27;113491;-69
2022/04/09 04:16:59;;;;;;;11.15;8.32;;;3.50;99.90;;;4.35;100.00;97315.03;5059741;27;130002;-71
2022/04/09 04:19:30;;;;;;;15.27;9.50;;;3.50;99.90;;;4.28;100.00;97320.94;5077139;27;129813;-69
2022/04/09 04:21:58;;;;;;;13.93;9.38;;;3.50;99.90;;;4.29;100.00;97325.19;5079972;27;119122;-69
2022/04/09 04:24:27;;;;;;;12.00;8.90;;;3.50;99.90;;;4.31;100.00;97321.06;5060695;27;114362;-69
2022/04/09 04:26:57;;;;;;;12.38;8.98;;;3.50;99.90;;;4.35;100.00;97331.97;5062660;27;129513;-68
2022/04/09 04:29:27;;;;;;;12.93;8.40;;;3.50;99.90;;;4.29;100.00;97323.28;5076916;27;129446;-69
2022/04/09 04:31:57;;;;;;;12.82;9.10;;;3.50;99.90;;;4.46;100.00;97337.75;5059970;27;118845;-68
2022/04/09 04:34:25;;;;;;;11.68;8.43;;;3.60;99.90;;;4.53;100.00;97342.63;5063626;27;113446;-68
2022/04/09 04:36:55;;;;;;;10.13;7.70;;;3.60;99.90;;;4.76;100.00;97335.84;5063117;27;130586;-69
2022/04/09 04:39:26;;;;;;;12.95;8.57;;;3.80;99.90;;;4.80;100.00;97335.97;5045865;27;128597;-69
2022/04/09 04:41:55;;;;;;;12.32;8.05;;;3.80;99.90;;;4.96;100.00;97336.97;5060005;27;118669;-70
2022/04/09 04:44:25;;;;;;;10.18;8.23;;;3.90;99.90;;;4.96;100.00;97339.66;5063184;27;113982;-69
2022/04/09 04:46:58;;;;;;;11.82;7.90;;;3.90;99.90;;;5.04;100.00;97336.13;5045892;27;128960;-69
2022/04/09 04:49:28;;;;;;;10.70;7.90;;;3.90;99.90;;;5.15;100.00;97325.75;5080097;27;130636;-70
2022/04/09 04:52:06;;;;;;;13.73;8.00;;;4.00;99.90;;;5.20;100.00;97332.84;5059677;27;118737;-69
2022/04/09 04:54:36;;;;;;;9.68;7.13;;;4.00;99.90;;;5.19;100.00;97332.06;5062825;27;113489;-71
2022/04/09 04:57:05;;;;;;;11.15;7.25;;;4.00;99.90;;;5.17;100.00;97328.94;5060938;27;129827;-69
2022/04/09 04:59:33;;;;;;;9.60;7.05;;;4.00;99.90;;;5.14;100.00;97334.97;5045297;27;129140;-70
2022/04/09 05:02:02;;;;;;;9.82;6.35;;;4.00;99.90;;;5.02;100.00;97322.22;5063046;27;118429;-69
2022/04/09 05:04:31;;;;;;;9.60;7.05;;;3.90;99.90;;;4.86;100.00;97324.72;5046110;27;112620;-69
2022/04/09 05:07:05;;;;;;;10.75;6.93;;;3.80;99.90;;;4.91;100.00;97326.44;5062378;27;129844;-69
2022/04/09 05:09:35;;;;;;;10.43;6.20;;;3.80;99.90;;;4.80;100.00;97319.84;5045479;27;128452;-67
2022/04/09 05:12:05;;;;;;;9.07;6.40;;;3.80;99.90;;;4.85;100.00;97317.75;5079932;27;119248;-70
2022/04/09 05:14:41;;;;;;;9.02;6.75;;;3.80;99.90;;;4.88;100.00;97316.34;5059598;27;113774;-69
2022/04/09 05:17:14;;;;;;;9.60;7.22;;;3.80;99.90;;;5.00;100.00;97319.09;5062107;27;130300;-65
2022/04/09 05:19:43;;;;;;;9.00;6.30;;;3.90;99.90;;;5.09;100.00;97315.53;5059410;27;129084;-68
2022/04/09 05:22:16;;;;;;;9.50;7.20;;;3.90;99.90;;;5.19;100.00;97321.31;5045661;27;117464;-67
2022/04/09 05:24:57;;;;;;;9.77;6.95;;;4.00;99.90;;;5.15;100.00;97316.91;5062016;27;114263;-66
2022/04/09 05:27:27;;;;;;;14.13;7.38;;;4.00;99.90;;;5.13;100.00;97321.84;5045155;27;128654;-67
2022/04/09 05:29:58;;;;;;;10.20;7.28;;;4.00;99.90;;;5.10;100.00;97323.28;5058740;27;129691;-66
2022/04/09 05:32:28;;;;;;;14.43;8.80;;;3.90;99.90;;;5.17;100.00;97317.38;5045364;27;119562;-67
2022/04/09 05:34:57;;;;;;;10.35;7.90;;;4.00;99.90;;;5.17;100.00;97325.44;5044373;27;115696;-66
2022/04/09 05:37:28;;;;;;;9.93;7.72;;;4.00;99.90;;;5.20;100.00;97330.16;5057948;27;130301;-67
2022/04/09 05:39:58;;;;;;;11.18;7.43;;;4.00;99.90;;;5.14;100.00;97334.16;5061581;27;129091;-66
2022/04/09 05:42:27;;;;;;;12.77;8.57;;;4.00;99.90;;;5.19;100.00;97331.28;5061326;27;118728;-65
2022/04/09 05:44:56;;;;;;;11.60;8.63;;;4.00;99.90;;;5.21;100.00;97331.75;5057785;27;116155;-68
2022/04/09 05:47:29;;;;;;;14.75;10.57;;;4.00;99.90;;;5.28;100.00;97329.28;5061078;27;129105;-67
2022/04/09 05:49:59;;;;;;;14.30;9.45;;;4.00;99.90;;;5.32;100.00;97319.47;5061229;27;129169;-67
2022/04/09 05:52:30;;;;;;;16.00;11.77;;;4.10;99.90;;;5.35;100.00;97307.25;5058640;27;118749;-68
2022/04/09 05:54:59;;;;;;;23.50;16.85;;;4.10;99.90;;;5.34;100.00;97305.69;5060523;27;115457;-65
2022/04/09 05:57:27;;;;;;;16.10;11.30;;;4.00;99.90;;;5.42;100.00;97302.13;5060908;27;129547;-66
2022/04/09 05:59:56;;;;;;;13.02;8.40;;;4.10;99.90;;;5.46;100.00;97303.03;5057960;27;130633;-66
2022/04/09 06:02:24;;;;;;;18.13;10.90;;;4.10;99.90;;;5.51;100.00;97302.81;5044673;27;117757;-66
2022/04/09 06:04:53;;;;;;;15.75;11.13;;;4.20;99.90;;;5.61;100.00;97309.72;5059477;27;116043;-66
2022/04/09 06:07:22;;;;;;;13.75;9.20;;;4.20;99.90;;;5.43;100.00;97308.31;5062130;27;129116;-69
2022/04/09 06:10:06;;;;;;;10.05;7.05;;;4.10;99.90;;;5.42;100.00;97302.13;5047736;27;129615;-67
2022/04/09 06:12:36;;;;;;;9.93;7.18;;;4.10;99.90;;;5.32;100.00;97308.69;5062862;27;118816;-69
2022/04/09 06:15:13;;;;;;;10.68;7.38;;;4.10;99.90;;;5.35;100.00;97304.56;5061792;27;115597;-67
2022/04/09 06:17:45;;;;;;;10.88;7.30;;;4.10;99.90;;;5.46;100.00;97313.00;5047376;27;128722;-66
2022/04/09 06:20:15;;;;;;;10.23;7.82;;;4.10;99.90;;;5.48;100.00;97314.25;5047119;27;128813;-66
2022/04/09 06:22:46;;;;;;;10.55;8.00;;;4.10;99.90;;;5.51;100.00;97316.28;5061813;27;118765;-66
2022/04/09 06:25:19;;;;;;;9.63;7.05;;;4.10;99.90;;;5.40;98.39;97320.50;5061887;27;115524;-66
2022/04/09 06:27:48;;;;;;;15.95;10.40;;;4.00;99.90;;;5.38;100.00;97312.75;5062416;27;130445;-66
2022/04/09 06:30:17;;;;;;;9.75;7.40;;;4.10;99.90;;;5.49;100.00;97312.34;5060868;27;129766;-66
2022/04/09 06:32:55;;;;;;;14.95;9.05;;;4.20;99.90;;;5.46;100.00;97313.00;5060673;27;119002;-67
2022/04/09 06:35:25;;;;;;;17.13;10.38;;;4.10;99.90;;;5.44;100.00;97304.47;5061597;27;116058;-66
2022/04/09 06:37:54;;;;;;;13.52;8.90;;;4.10;99.90;;;5.58;100.00;97299.59;5046695;27;128871;-66
2022/04/09 06:40:28;;;;;;;11.30;8.50;;;4.20;99.90;;;5.75;100.00;97287.88;5060835;27;129504;-67
2022/04/09 06:42:57;;;;;;;9.23;6.20;;;4.30;99.90;;;5.84;100.00;97295.84;5064713;27;118559;-65
2022/04/09 06:45:45;;;;;;;10.65;7.07;;;4.40;99.90;;;5.94;99.47;97281.97;5062601;27;114993;-66
2022/04/09 06:48:25;;;;;;;10.15;7.25;;;4.40;99.90;;;6.00;100.00;97287.94;5063772;27;130462;-67
2022/04/09 06:51:12;;;;;;;11.02;6.95;;;4.50;99.90;;;5.92;100.00;97281.50;5061127;27;129810;-65
2022/04/09 06:53:42;;;;;;;9.93;6.63;;;4.40;99.90;;;5.94;100.00;97284.66;5064415;27;119236;-66
2022/04/09 06:56:13;;;;;;;12.70;7.22;;;4.40;99.90;;;5.98;100.00;97285.56;5060951;27;115338;-65
2022/04/09 06:58:42;;;;;;;12.93;7.63;;;4.40;99.90;;;5.90;99.46;97292.59;5063794;27;129579;-66
2022/04/09 07:01:11;;;;;;;10.35;6.65;;;4.30;99.90;;;5.88;99.00;97292.16;5060704;27;130609;-66
2022/04/09 07:03:42;;;;;;;10.20;6.45;;;4.20;99.90;;;6.02;98.82;97302.63;5063795;27;118571;-67
2022/04/09 07:06:11;;;;;;;10.18;6.53;;;4.40;99.90;;;6.13;99.16;97299.50;5061307;27;115674;-65
2022/04/09 07:08:40;;;;;;;9.93;6.80;;;4.40;99.90;;;6.24;98.32;97308.72;5062032;27;130305;-66
2022/04/09 07:11:09;;;;;;;12.55;7.70;;;4.40;99.90;;;6.34;98.06;97302.88;5061783;27;129821;-65
2022/04/09 07:13:38;;;;;;;14.00;8.48;;;4.50;99.90;;;6.20;96.98;97307.81;5062266;27;118872;-65
2022/04/09 07:16:08;;;;;;;15.93;8.65;;;4.40;99.90;;;5.74;96.89;97291.69;5064571;27;114352;-66
2022/04/09 07:18:36;;;;;;;10.77;7.00;;;4.30;99.90;;;5.89;97.57;97298.31;5062000;27;130412;-65
2022/04/09 07:21:04;;;;;;;11.32;7.57;;;4.30;99.90;;;5.96;96.88;97292.41;5063312;27;129455;-65
2022/04/09 07:23:33;;;;;;;11.35;7.75;;;4.40;99.90;;;6.00;96.75;97299.50;5063896;27;118843;-65
2022/04/09 07:26:02;;;;;;;11.75;7.22;;;4.50;99.90;;;6.15;97.20;97305.34;5062422;27;115958;-66
2022/04/09 07:28:30;;;;;;;13.10;7.40;;;4.50;99.90;;;5.50;98.89;97297.78;5060293;27;130375;-67
2022/04/09 07:31:01;;;;;;;10.23;7.07;;;4.30;99.90;;;5.65;99.11;97294.44;5061696;27;129515;-66
2022/04/09 07:33:29;;;;;;;9.75;7.20;;;4.30;99.90;;;5.68;98.45;97283.03;5060935;27;118988;-66
2022/04/09 07:35:58;;;;;;;8.77;6.60;;;4.30;99.90;;;5.75;99.14;97291.34;5062222;27;115619;-65
2022/04/09 07:38:26;;;;;;;10.32;6.75;;;4.40;99.90;;;5.19;100.00;97293.63;5061707;27;129844;-66
2022/04/09 07:40:55;;;;;;;8.95;6.70;;;4.20;99.90;;;5.04;100.00;97286.94;5060439;27;129856;-65
2022/04/09 07:43:23;;;;;;;10.40;6.40;;;4.10;99.90;;;5.00;100.00;97296.78;5062138;27;119565;-65
2022/04/09 07:45:52;;;;;;;9.95;6.93;;;4.10;99.90;;;5.26;100.00;97288.50;5063770;27;114501;-66
2022/04/09 07:48:22;;;;;;;12.45;7.13;;;4.20;99.90;;;5.50;100.00;97287.81;5061278;27;129651;-66
2022/04/09 07:50:50;;;;;;;9.25;6.93;;;4.30;99.90;;;5.66;100.00;97290.66;5061530;27;129498;-66
2022/04/09 07:53:18;;;;;;;8.20;4.90;;;4.40;99.90;;;5.78;100.00;97297.16;5061614;27;119027;-67
2022/04/09 07:55:47;;;;;;;10.60;6.68;;;4.40;99.90;;;5.93;100.00;97299.22;5063719;27;114108;-65
2022/04/09 07:58:15;;;;;;;9.27;5.88;;;4.60;99.90;;;6.11;100.00;97300.63;5061324;27;129847;-65
2022/04/09 08:00:45;;;;;;;7.68;5.35;;;4.70;99.90;;;6.21;100.00;97301.31;5061165;27;129613;-66
2022/04/09 08:03:14;;;;;;;10.70;6.15;;;4.70;99.90;;;6.11;99.07;97294.47;5061804;27;119371;-65
2022/04/09 08:05:44;;;;;;;10.18;6.68;;;4.60;99.90;;;6.11;99.12;97292.53;5061942;27;114948;-66
2022/04/09 08:08:12;;;;;;;9.68;6.95;;;4.50;99.90;;;6.14;99.68;97293.00;5061307;27;129966;-64
2022/04/09 08:10:41;;;;;;;11.07;7.32;;;4.60;99.90;;;6.04;98.39;97286.91;5063004;27;128982;-66
2022/04/09 08:13:09;;;;;;;9.20;7.15;;;4.50;99.90;;;5.85;99.29;97300.13;5061407;27;119734;-66
2022/04/09 08:15:39;;;;;;;12.40;8.02;;;4.40;99.90;;;5.50;99.19;97293.19;5061519;27;116097;-66
2022/04/09 08:18:09;;;;;;;13.15;9.05;;;4.30;99.90;;;5.54;100.00;97290.63;5060890;27;129785;-66
2022/04/09 08:20:38;;;;;;;14.85;10.57;;;4.20;99.90;;;5.55;100.00;97294.88;5061921;27;129104;-66
2022/04/09 08:23:08;;;;;;;21.08;15.90;;;4.30;99.90;;;5.22;100.00;97284.91;5059700;27;118948;-65
2022/04/09 08:25:36;;;;;;;23.52;18.40;;;4.10;99.90;;;5.44;100.00;97282.94;5063161;27;116199;-66
2022/04/09 08:28:06;;;;;;;24.20;19.23;;;4.20;99.90;;;5.44;100.00;97288.34;5060374;27;129988;-65
2022/04/09 08:30:36;;;;;;;12.98;9.73;;;4.20;99.90;;;5.61;100.00;97282.81;5060091;27;130768;-65
2022/04/09 08:33:07;;;;;;;11.93;9.18;;;4.30;99.90;;;6.02;99.86;97289.16;5061487;27;119350;-65
2022/04/09 08:35:36;;;;;;;10.85;8.60;;;4.60;99.90;;;6.28;97.69;97285.38;5062574;27;114750;-64
2022/04/09 08:38:04;;;;;;;11.23;8.75;;;4.70;99.90;;;6.30;97.77;97286.59;5059838;27;129996;-66
2022/04/09 08:40:38;;;;;;;12.50;8.30;;;4.80;99.90;;;6.10;96.70;97293.66;5060615;27;130204;-66
2022/04/09 08:43:07;;;;;;;9.88;8.05;;;4.50;99.90;;;5.94;96.52;97290.03;5060421;27;119106;-67
2022/04/09 08:45:40;;;;;;;10.35;7.13;;;4.50;99.90;;;6.00;96.08;97296.00;5060702;27;115190;-67
2022/04/09 08:48:10;;;;;;;11.27;7.75;;;4.40;99.90;;;6.02;96.67;97299.94;5062017;27;129385;-64
2022/04/09 08:50:42;;;;;;;10.27;7.65;;;4.50;99.90;;;6.20;97.52;97307.81;5062341;27;129532;-65
2022/04/09 08:53:11;;;;;;;11.23;7.15;;;4.60;99.90;;;6.30;96.73;97312.75;5060725;27;119151;-65
2022/04/09 08:55:42;;;;;;;10.50;7.95;;;4.70;99.90;;;6.34;97.05;97302.88;5062730;27;114440;-65
2022/04/09 08:58:10;;;;;;;10.93;7.85;;;4.70;99.90;;;6.04;96.38;97311.16;5059807;27;130093;-64
2022/04/09 09:00:39;;;;;;;7.85;5.60;;;4.50;99.90;;;5.63;94.45;97304.78;5057495;27;130113;-66
2022/04/09 09:03:10;;;;;;;7.72;5.55;;;4.10;99.90;;;5.42;95.69;97306.72;5062284;27;118011;-66
2022/04/09 09:05:41;;;;;;;6.40;4.70;;;4.00;99.90;;;4.70;96.98;97309.50;5060695;27;114856;-65
2022/04/09 09:08:11;;;;;;;7.18;4.85;;;3.70;80.20;;;4.62;98.76;97303.06;5060206;27;130003;-64
2022/04/09 09:10:43;;;;;;;6.25;4.40;;;3.60;93.10;;;4.22;99.39;97306.88;5060355;27;130244;-67
2022/04/09 09:13:13;;;;;;;6.95;5.10;;;3.50;87.20;;;4.06;100.00;97311.25;5062393;27;117536;-65
2022/04/09 09:15:47;;;;;;;9.35;5.93;;;3.40;87.30;;;4.42;100.00;97305.38;5061897;27;114716;-67
2022/04/09 09:18:24;;;;;;;8.65;6.03;;;3.50;99.90;;;4.45;100.00;97303.94;5060042;27;130744;-64
2022/04/09 09:20:55;;;;;;;8.60;6.53;;;3.60;99.90;;;4.62;99.86;97300.38;5061595;27;130052;-63
2022/04/09 09:23:25;;;;;;;9.02;6.40;;;3.60;99.90;;;4.32;99.25;97317.28;5060427;27;118707;-67
2022/04/09 09:25:57;;;;;;;8.35;6.63;;;3.40;99.90;;;4.21;100.00;97313.38;5059470;27;115070;-67
2022/04/09 09:28:27;;;;;;;10.32;7.28;;;3.40;99.90;;;4.15;100.00;97306.63;5061978;27;129909;-65
2022/04/09 09:30:56;;;;;;;8.65;6.15;;;3.30;99.90;;;3.92;100.00;97325.63;5059786;27;130548;-67
2022/04/09 09:33:26;;;;;;;7.28;5.57;;;3.20;99.90;;;3.93;100.00;97319.16;5045307;27;118405;-67
2022/04/09 09:35:56;;;;;;;8.95;6.18;;;3.20;99.90;;;3.83;100.00;97322.19;5045706;27;113615;-66
2022/04/09 09:38:27;;;;;;;9.13;6.15;;;3.10;99.90;;;3.61;100.00;97325.88;5061935;27;130603;-66
2022/04/09 09:41:01;;;;;;;11.20;6.13;;;3.10;99.90;;;3.64;100.00;97324.47;5059812;27;129427;-65
2022/04/09 09:43:30;;;;;;;9.00;5.95;;;3.10;99.90;;;3.60;100.00;97327.78;5063064;27;119301;-66
2022/04/09 09:45:59;;;;;;;13.32;8.90;;;3.10;99.90;;;3.59;100.00;97326.19;5062929;27;115531;-66
2022/04/09 09:48:29;;;;;;;12.70;8.95;;;3.10;99.90;;;3.48;100.00;97322.28;5063426;27;129852;-66
2022/04/09 09:50:59;;;;;;;12.85;9.05;;;3.00;99.90;;;3.28;100.00;97323.72;5063369;27;130714;-64
2022/04/09 09:53:34;;;;;;;12.40;8.02;;;3.00;99.90;;;3.40;100.00;97310.47;5063707;27;119138;-65
2022/04/09 09:56:06;;;;;;;9.90;6.35;;;3.00;99.90;;;3.75;100.00;97314.97;5063796;27;115799;-67
2022/04/09 09:58:34;;;;;;;8.23;5.15;;;3.10;99.90;;;3.65;100.00;97312.63;5062933;27;129837;-66
2022/04/09 10:01:03;;;;;;;7.07;5.22;;;3.10;99.90;;;4.03;100.00;97309.19;5065059;27;128722;-66
2022/04/09 10:03:35;;;;;;;9.10;5.05;;;3.20;99.90;;;4.04;100.00;97311.56;5062212;27;119003;-65
2022/04/09 10:06:05;;;;;;;8.05;5.20;;;3.20;99.90;;;4.18;100.00;97310.56;5055124;27;114778;-65
2022/04/09 10:08:34;;;;;;;7.38;5.03;;;3.30;99.90;;;4.38;100.00;97317.09;5058834;27;129787;-64
2022/04/09 10:11:04;;;;;;;6.70;4.45;;;3.40;99.90;;;4.13;99.69;97314.22;5062355;27;130224;-66
2022/04/09 10:13:36;;;;;;;9.00;5.18;;;3.30;99.90;;;4.13;100.00;97314.22;5062858;27;119562;-65
2022/04/09 10:16:08;;;;;;;10.10;6.55;;;3.30;97.20;;;4.24;100.00;97331.53;5063118;27;115717;-66
2022/04/09 10:18:38;;;;;;;8.70;5.45;;;3.40;99.90;;;3.86;100.00;97339.56;5061108;27;129941;-66
2022/04/09 10:21:07;;;;;;;10.73;6.25;;;3.10;99.90;;;3.90;100.00;97338.59;5063475;27;130237;-65
2022/04/09 10:23:36;;;;;;;9.43;5.68;;;3.20;99.90;;;4.00;100.00;97336.69;5064577;27;117929;-65
2022/04/09 10:26:07;;;;;;;7.28;5.53;;;3.20;99.90;;;3.77;100.00;97339.56;5062733;27;115937;-65